createdAt,value
2023-04-14T00:00:12.764Z,96732.81
2023-04-14T00:02:41.157Z,96730.06
2023-04-14T00:05:10.478Z,96740.00
2023-04-14T00:07:38.455Z,96749.53
2023-04-14T00:10:08.530Z,96749.59
2023-04-14T00:12:36.786Z,96742.53
2023-04-14T00:15:05.063Z,96746.09
2023-04-14T00:17:33.103Z,96749.28
2023-04-14T00:20:01.056Z,96748.75
2023-04-14T00:22:29.010Z,96757.06
2023-04-14T00:24:56.905Z,96750.03
2023-04-14T00:27:26.277Z,96755.44
2023-04-14T00:29:54.159Z,96759.69
2023-04-14T00:32:22.560Z,96763.22
2023-04-14T00:34:50.451Z,96761.84
2023-04-14T00:37:18.420Z,96763.25
2023-04-14T00:39:46.338Z,96754.28
2023-04-14T00:42:14.495Z,96761.00
2023-04-14T00:44:43.818Z,96761.00
2023-04-14T00:47:11.667Z,96763.75
2023-04-14T00:49:39.600Z,96770.78
2023-04-14T00:52:07.801Z,96765.84
2023-04-14T00:54:36.229Z,96773.94
2023-04-14T00:57:04.212Z,96774.94
2023-04-14T00:59:32.155Z,96774.84
2023-04-14T01:02:02.083Z,96777.88
2023-04-14T01:04:44.549Z,96784.47
2023-04-14T01:07:12.960Z,96782.88
2023-04-14T01:09:40.904Z,96786.31
2023-04-14T01:12:13.820Z,96776.75
2023-04-14T01:14:43.436Z,96786.03
2023-04-14T01:17:16.722Z,96776.03
2023-04-14T01:19:54.469Z,96789.63
2023-04-14T01:22:23.046Z,96785.72
2023-04-14T01:25:19.129Z,96781.72
2023-04-14T01:27:54.307Z,96774.03
2023-04-14T01:30:49.482Z,96783.84
2023-04-14T01:33:20.115Z,96786.13
2023-04-14T01:35:51.774Z,96781.78
2023-04-14T01:38:28.952Z,96779.97
2023-04-14T01:40:59.012Z,96789.13
2023-04-14T01:43:28.419Z,96785.97
2023-04-14T01:45:57.262Z,96784.31
2023-04-14T01:48:26.844Z,96793.13
2023-04-14T01:50:54.848Z,96793.44
2023-04-14T01:53:22.733Z,96785.84
2023-04-14T01:55:50.664Z,96787.84
2023-04-14T01:58:19.247Z,96786.81
2023-04-14T02:00:47.217Z,96788.56
2023-04-14T02:03:15.381Z,96796.56
2023-04-14T02:05:44.714Z,96794.50
2023-04-14T02:08:13.768Z,96790.00
2023-04-14T02:10:46.112Z,96789.63
2023-04-14T02:13:14.331Z,96783.31
2023-04-14T02:15:42.340Z,96790.72
2023-04-14T02:18:10.317Z,96784.53
2023-04-14T02:20:42.641Z,96780.81
2023-04-14T02:23:12.217Z,96789.22
2023-04-14T02:25:41.695Z,96786.78
2023-04-14T02:28:13.255Z,96778.28
2023-04-14T02:30:42.032Z,96794.28
2023-04-14T02:33:10.910Z,96796.81
2023-04-14T02:35:40.924Z,96792.34
2023-04-14T02:38:09.533Z,96800.34
2023-04-14T02:40:39.905Z,96808.09
2023-04-14T02:43:13.735Z,96802.19
2023-04-14T02:45:42.360Z,96813.53
2023-04-14T02:48:11.481Z,96814.56
2023-04-14T02:50:39.650Z,96822.16
2023-04-14T02:53:07.561Z,96817.56
2023-04-14T02:55:35.470Z,96829.88
2023-04-14T02:58:04.758Z,96822.88
2023-04-14T03:00:32.812Z,96825.28
2023-04-14T03:03:01.310Z,96826.03
2023-04-14T03:05:29.610Z,96830.94
2023-04-14T03:07:57.523Z,96831.34
2023-04-14T03:10:25.490Z,96825.19
2023-04-14T03:12:53.466Z,96829.03
2023-04-14T03:15:22.907Z,96826.63
2023-04-14T03:17:54.478Z,96833.59
2023-04-14T03:20:23.491Z,96834.31
2023-04-14T03:22:57.502Z,96833.09
2023-04-14T03:25:27.408Z,96835.75
2023-04-14T03:27:55.742Z,96836.97
2023-04-14T03:30:26.674Z,96838.56
2023-04-14T03:32:54.979Z,96834.09
2023-04-14T03:35:23.144Z,96832.88
2023-04-14T03:37:51.148Z,96833.50
2023-04-14T03:40:19.208Z,96827.56
2023-04-14T03:42:47.402Z,96818.53
2023-04-14T03:45:17.322Z,96823.28
2023-04-14T03:47:46.630Z,96827.78
2023-04-14T03:50:15.790Z,96825.69
2023-04-14T03:52:44.540Z,96828.25
2023-04-14T03:55:12.895Z,96833.66
2023-04-14T03:57:40.798Z,96827.75
2023-04-14T04:00:09.612Z,96834.25
2023-04-14T04:02:38.382Z,96839.38
2023-04-14T04:05:08.883Z,96838.28
2023-04-14T04:07:37.538Z,96842.47
2023-04-14T04:10:06.172Z,96842.19
2023-04-14T04:12:34.288Z,96848.53
2023-04-14T04:15:02.368Z,96842.97
2023-04-14T04:17:30.697Z,96844.53
2023-04-14T04:19:58.627Z,96841.28
2023-04-14T04:22:27.981Z,96838.38
2023-04-14T04:24:56.051Z,96851.16
2023-04-14T04:27:28.130Z,96847.53
2023-04-14T04:29:57.315Z,96842.44
2023-04-14T04:32:25.858Z,96844.50
2023-04-14T04:34:53.963Z,96847.28
2023-04-14T04:37:22.161Z,96851.41
2023-04-14T04:39:51.807Z,96847.63
2023-04-14T04:42:20.071Z,96852.97
2023-04-14T04:44:48.048Z,96847.28
2023-04-14T04:47:16.028Z,96844.97
2023-04-14T04:49:43.990Z,96859.31
2023-04-14T04:52:12.152Z,96850.63
2023-04-14T04:54:40.130Z,96854.28
2023-04-14T04:57:09.387Z,96850.19
2023-04-14T04:59:38.269Z,96847.97
2023-04-14T05:02:10.262Z,96848.28
2023-04-14T05:04:38.601Z,96855.53
2023-04-14T05:07:06.951Z,96848.41
2023-04-14T05:09:34.902Z,96854.31
2023-04-14T05:12:05.154Z,96854.47
2023-04-14T05:14:39.662Z,96864.13
2023-04-14T05:17:07.984Z,96855.91
2023-04-14T05:19:35.828Z,96870.28
2023-04-14T05:22:03.743Z,96874.28
2023-04-14T05:24:31.638Z,96860.78
2023-04-14T05:27:13.619Z,96867.22
2023-04-14T05:29:43.933Z,96865.28
2023-04-14T05:32:13.075Z,96878.91
2023-04-14T05:34:41.169Z,96870.94
2023-04-14T05:37:09.243Z,96869.97
2023-04-14T05:39:37.343Z,96864.06
2023-04-14T05:42:05.734Z,96867.56
2023-04-14T05:44:33.763Z,96862.75
2023-04-14T05:47:03.227Z,96862.53
2023-04-14T05:49:31.519Z,96864.34
2023-04-14T05:51:59.736Z,96865.03
2023-04-14T05:54:27.639Z,96864.41
2023-04-14T05:56:56.433Z,96859.72
2023-04-14T05:59:24.700Z,96864.66
2023-04-14T06:01:52.687Z,96864.28
2023-04-14T06:04:22.259Z,96865.88
2023-04-14T06:06:50.296Z,96864.53
2023-04-14T06:09:20.263Z,96862.19
2023-04-14T06:11:48.168Z,96857.09
2023-04-14T06:14:16.146Z,96853.47
2023-04-14T06:16:44.332Z,96855.06
2023-04-14T06:19:12.296Z,96858.41
2023-04-14T06:21:41.635Z,96851.34
2023-04-14T06:24:10.035Z,96850.66
2023-04-14T06:26:37.978Z,96849.78
2023-04-14T06:29:07.601Z,96852.16
2023-04-14T06:31:36.052Z,96846.94
2023-04-14T06:34:04.051Z,96849.69
2023-04-14T06:36:31.966Z,96839.13
2023-04-14T06:39:01.875Z,96845.09
2023-04-14T06:41:33.157Z,96841.41
2023-04-14T06:44:00.985Z,96841.59
2023-04-14T06:46:29.267Z,96839.38
2023-04-14T06:48:57.186Z,96830.22
2023-04-14T06:51:25.070Z,96834.19
2023-04-14T06:53:53.206Z,96821.47
2023-04-14T06:56:22.518Z,96821.28
2023-04-14T06:58:50.458Z,96819.41
2023-04-14T07:01:18.412Z,96822.97
2023-04-14T07:03:47.242Z,96820.06
2023-04-14T07:06:17.237Z,96812.78
2023-04-14T07:08:47.095Z,96812.53
2023-04-14T07:11:16.029Z,96808.34
2023-04-14T07:13:45.327Z,96807.56
2023-04-14T07:16:13.282Z,96808.16
2023-04-14T07:18:41.235Z,96805.38
2023-04-14T07:21:09.160Z,96809.19
2023-04-14T07:23:37.507Z,96804.03
2023-04-14T07:26:06.404Z,96804.50
2023-04-14T07:28:34.392Z,96800.53
2023-04-14T07:31:10.100Z,96799.56
2023-04-14T07:33:38.193Z,96792.81
2023-04-14T07:36:07.210Z,96790.28
2023-04-14T07:38:35.224Z,96789.16
2023-04-14T07:41:04.578Z,96788.31
2023-04-14T07:43:35.874Z,96796.06
2023-04-14T07:46:05.647Z,96795.63
2023-04-14T07:48:35.340Z,96805.06
2023-04-14T07:51:03.266Z,96794.63
2023-04-14T07:53:31.559Z,96794.03
2023-04-14T07:55:59.860Z,96793.00
2023-04-14T07:58:29.552Z,96802.22
2023-04-14T08:01:01.400Z,96807.38
2023-04-14T08:03:34.736Z,96812.13
2023-04-14T08:06:05.730Z,96805.06
2023-04-14T08:08:41.775Z,96805.06
2023-04-14T08:11:10.792Z,96816.16
2023-04-14T08:13:38.706Z,96803.63
2023-04-14T08:16:06.733Z,96808.75
2023-04-14T08:18:34.681Z,96798.63
2023-04-14T08:21:04.686Z,96793.44
2023-04-14T08:23:33.068Z,96799.78
2023-04-14T08:26:00.992Z,96798.81
2023-04-14T08:28:29.332Z,96793.31
2023-04-14T08:30:57.403Z,96795.16
2023-04-14T08:33:26.598Z,96791.75
2023-04-14T08:35:59.893Z,96789.47
2023-04-14T08:38:34.436Z,96789.72
2023-04-14T08:41:02.589Z,96780.63
2023-04-14T08:43:30.453Z,96784.50
2023-04-14T08:45:58.677Z,96785.13
2023-04-14T08:48:28.423Z,96792.03
2023-04-14T08:50:59.368Z,96789.50
2023-04-14T08:53:28.665Z,96778.94
2023-04-14T08:56:05.355Z,96779.19
2023-04-14T08:58:38.021Z,96778.09
2023-04-14T09:01:06.808Z,96781.25
2023-04-14T09:03:34.932Z,96778.66
2023-04-14T09:06:06.567Z,96772.28
2023-04-14T09:08:34.957Z,96772.88
2023-04-14T09:11:06.823Z,96768.47
2023-04-14T09:13:38.892Z,96763.69
2023-04-14T09:16:12.010Z,96762.34
2023-04-14T09:18:40.429Z,96766.13
2023-04-14T09:21:31.184Z,96763.66
2023-04-14T09:23:57.485Z,96759.69
2023-04-14T09:26:27.393Z,96762.38
2023-04-14T09:28:55.366Z,96765.94
2023-04-14T09:31:23.807Z,96769.25
2023-04-14T09:33:51.912Z,96766.03
2023-04-14T09:36:20.750Z,96761.88
2023-04-14T09:38:50.541Z,96759.88
2023-04-14T09:41:18.685Z,96754.72
2023-04-14T09:43:48.197Z,96762.09
2023-04-14T09:46:16.632Z,96754.56
2023-04-14T09:48:52.161Z,96757.09
2023-04-14T09:51:23.454Z,96757.66
2023-04-14T09:53:51.796Z,96751.59
2023-04-14T09:56:19.956Z,96752.56
2023-04-14T09:58:50.432Z,96747.19
2023-04-14T10:01:19.342Z,96743.53
2023-04-14T10:03:51.384Z,96738.19
2023-04-14T10:06:21.907Z,96738.66
2023-04-14T10:08:53.827Z,96735.00
2023-04-14T10:11:23.034Z,96731.78
2023-04-14T10:13:54.206Z,96729.56
2023-04-14T10:16:23.446Z,96717.88
2023-04-14T10:18:53.358Z,96719.91
2023-04-14T10:21:23.567Z,96720.41
2023-04-14T10:23:53.748Z,96711.69
2023-04-14T10:26:24.454Z,96715.53
2023-04-14T10:28:55.487Z,96718.06
2023-04-14T10:31:25.298Z,96711.84
2023-04-14T10:33:54.148Z,96711.22
2023-04-14T10:36:25.574Z,96707.19
2023-04-14T10:38:59.861Z,96709.69
2023-04-14T10:41:31.879Z,96711.88
2023-04-14T10:44:04.560Z,96708.00
2023-04-14T10:46:50.506Z,96693.19
2023-04-14T10:49:18.971Z,96687.81
2023-04-14T10:51:49.922Z,96683.72
2023-04-14T10:54:19.017Z,96686.47
2023-04-14T10:57:12.454Z,96689.75
2023-04-14T10:59:54.680Z,96685.56
2023-04-14T11:02:29.802Z,96680.03
2023-04-14T11:05:07.693Z,96672.09
2023-04-14T11:07:42.141Z,96675.88
2023-04-14T11:10:35.700Z,96667.06
2023-04-14T11:13:10.034Z,96666.75
2023-04-14T11:15:52.731Z,96664.13
2023-04-14T11:18:36.320Z,96658.69
2023-04-14T11:21:06.234Z,96660.44
2023-04-14T11:23:34.567Z,96651.59
2023-04-14T11:26:03.830Z,96656.47
2023-04-14T11:28:33.763Z,96647.59
2023-04-14T11:31:09.627Z,96651.97
2023-04-14T11:33:39.939Z,96654.75
2023-04-14T11:36:10.204Z,96652.03
2023-04-14T11:38:40.860Z,96652.06
2023-04-14T11:41:14.941Z,96648.09
2023-04-14T11:43:46.901Z,96647.44
2023-04-14T11:46:16.715Z,96635.91
2023-04-14T11:48:44.735Z,96636.25
2023-04-14T11:51:12.683Z,96638.91
2023-04-14T11:53:40.918Z,96636.63
2023-04-14T11:56:09.379Z,96640.69
2023-04-14T11:58:37.563Z,96639.44
2023-04-14T12:01:05.831Z,96629.78
2023-04-14T12:03:35.739Z,96637.16
2023-04-14T12:06:04.027Z,96629.63
2023-04-14T12:08:32.354Z,96632.25
2023-04-14T12:11:00.315Z,96634.84
2023-04-14T12:13:28.214Z,96626.09
2023-04-14T12:15:56.448Z,96617.84
2023-04-14T12:18:24.478Z,96619.00
2023-04-14T12:20:55.595Z,96618.94
2023-04-14T12:23:25.655Z,96612.19
2023-04-14T12:25:53.767Z,96614.97
2023-04-14T12:28:25.679Z,96613.19
2023-04-14T12:30:54.245Z,96610.16
2023-04-14T12:33:23.719Z,96606.44
2023-04-14T12:35:51.837Z,96605.41
2023-04-14T12:38:21.849Z,96607.41
2023-04-14T12:40:49.789Z,96596.00
2023-04-14T12:43:17.902Z,96600.56
2023-04-14T12:45:47.262Z,96605.03
2023-04-14T12:48:19.252Z,96593.50
2023-04-14T12:50:51.263Z,96587.34
2023-04-14T12:53:28.435Z,96587.91
2023-04-14T12:56:07.170Z,96584.34
2023-04-14T12:58:35.193Z,96581.84
2023-04-14T13:01:03.467Z,96588.84
2023-04-14T13:03:45.076Z,96581.50
2023-04-14T13:06:13.720Z,96582.84
2023-04-14T13:08:46.256Z,96582.75
2023-04-14T13:11:14.304Z,96579.69
2023-04-14T13:13:42.318Z,96568.88
2023-04-14T13:16:13.519Z,96578.53
2023-04-14T13:18:43.725Z,96562.16
2023-04-14T13:21:11.811Z,96568.00
2023-04-14T13:23:42.512Z,96564.31
2023-04-14T13:26:12.014Z,96559.59
2023-04-14T13:28:40.235Z,96565.88
2023-04-14T13:31:08.461Z,96566.59
2023-04-14T13:33:36.465Z,96561.72
2023-04-14T13:36:04.607Z,96548.81
2023-04-14T13:38:33.454Z,96555.81
2023-04-14T13:41:08.354Z,96551.66
2023-04-14T13:43:41.526Z,96557.34
2023-04-14T13:46:09.671Z,96554.94
2023-04-14T13:48:38.619Z,96549.25
2023-04-14T13:51:06.685Z,96551.09
2023-04-14T13:53:34.605Z,96547.75
2023-04-14T13:56:02.957Z,96547.66
2023-04-14T13:58:30.810Z,96547.84
2023-04-14T14:01:00.173Z,96541.28
2023-04-14T14:03:29.946Z,96545.84
2023-04-14T14:05:59.502Z,96548.19
2023-04-14T14:08:27.379Z,96536.19
2023-04-14T14:10:55.550Z,96537.56
2023-04-14T14:13:23.512Z,96529.81
2023-04-14T14:15:51.493Z,96535.63
2023-04-14T14:18:21.202Z,96538.72
2023-04-14T14:20:49.289Z,96540.53
2023-04-14T14:23:17.451Z,96534.69
2023-04-14T14:25:46.472Z,96542.66
2023-04-14T14:28:16.252Z,96545.50
2023-04-14T14:30:44.323Z,96538.88
2023-04-14T14:33:12.498Z,96533.28
2023-04-14T14:35:41.830Z,96528.84
2023-04-14T14:38:09.710Z,96529.69
2023-04-14T14:40:37.665Z,96523.84
2023-04-14T14:43:06.340Z,96526.69
2023-04-14T14:45:34.273Z,96526.38
2023-04-14T14:48:02.879Z,96519.44
2023-04-14T14:50:30.820Z,96520.69
2023-04-14T14:53:00.115Z,96514.41
2023-04-14T14:55:28.312Z,96514.28
2023-04-14T14:57:56.278Z,96517.25
2023-04-14T15:00:24.308Z,96507.34
2023-04-14T15:02:53.462Z,96521.88
2023-04-14T15:05:21.529Z,96517.06
2023-04-14T15:07:49.679Z,96512.06
2023-04-14T15:10:22.933Z,96509.69
2023-04-14T15:12:50.894Z,96520.78
2023-04-14T15:15:20.057Z,96513.44
2023-04-14T15:17:48.595Z,96511.69
2023-04-14T15:20:17.140Z,96511.91
2023-04-14T15:22:45.034Z,96512.56
2023-04-14T15:25:14.394Z,96505.25
2023-04-14T15:27:44.214Z,96508.22
2023-04-14T15:30:13.255Z,96505.19
2023-04-14T15:32:41.239Z,96504.81
2023-04-14T15:35:10.322Z,96508.50
2023-04-14T15:37:38.208Z,96507.31
2023-04-14T15:40:07.291Z,96511.22
2023-04-14T15:42:35.559Z,96511.38
2023-04-14T15:45:05.261Z,96505.88
2023-04-14T15:47:33.318Z,96509.97
2023-04-14T15:50:09.854Z,96514.72
2023-04-14T15:52:43.814Z,96507.28
2023-04-14T15:55:15.796Z,96509.22
2023-04-14T15:57:44.251Z,96501.97
2023-04-14T16:00:23.374Z,96504.50
2023-04-14T16:02:55.251Z,96503.28
2023-04-14T16:05:45.358Z,96508.56
2023-04-14T16:08:18.386Z,96503.19
2023-04-14T16:10:46.665Z,96505.56
2023-04-14T16:13:14.940Z,96513.38
2023-04-14T16:15:44.231Z,96507.34
2023-04-14T16:18:12.421Z,96501.50
2023-04-14T16:20:41.160Z,96501.59
2023-04-14T16:23:09.030Z,96502.34
2023-04-14T16:25:36.877Z,96496.19
2023-04-14T16:28:05.118Z,96500.41
2023-04-14T16:30:33.201Z,96497.91
2023-04-14T16:33:02.662Z,96501.75
2023-04-14T16:35:30.886Z,96492.59
2023-04-14T16:37:59.488Z,96500.53
2023-04-14T16:40:27.595Z,96494.53
2023-04-14T16:42:56.416Z,96490.22
2023-04-14T16:45:25.271Z,96487.25
2023-04-14T16:47:53.292Z,96486.47
2023-04-14T16:50:22.745Z,96495.06
2023-04-14T16:52:52.383Z,96495.00
2023-04-14T16:56:10.033Z,96498.66
2023-04-14T16:58:38.957Z,96491.75
2023-04-14T17:01:07.575Z,96498.72
2023-04-14T17:03:36.819Z,96493.84
2023-04-14T17:06:06.558Z,96495.69
2023-04-14T17:08:35.030Z,96491.88
2023-04-14T17:11:03.472Z,96502.53
2023-04-14T17:13:31.434Z,96492.00
2023-04-14T17:16:08.417Z,96495.72
2023-04-14T17:18:37.687Z,96491.59
2023-04-14T17:21:07.493Z,96498.47
2023-04-14T17:23:37.066Z,96499.41
2023-04-14T17:26:06.351Z,96501.84
2023-04-14T17:28:35.727Z,96504.25
2023-04-14T17:31:05.088Z,96511.22
2023-04-14T17:33:33.053Z,96502.00
2023-04-14T17:36:01.014Z,96510.72
2023-04-14T17:38:31.243Z,96510.81
2023-04-14T17:40:59.410Z,96513.97
2023-04-14T17:43:27.389Z,96518.09
2023-04-14T17:45:55.359Z,96518.91
2023-04-14T17:48:23.432Z,96523.88
2023-04-14T17:50:51.701Z,96532.25
2023-04-14T17:53:22.038Z,96531.78
2023-04-14T17:55:52.402Z,96534.84
2023-04-14T17:58:20.386Z,96534.16
2023-04-14T18:00:48.684Z,96541.53
2023-04-14T18:03:17.148Z,96544.91
2023-04-14T18:05:45.084Z,96543.03
2023-04-14T18:08:14.268Z,96542.84
2023-04-14T18:10:45.590Z,96552.91
2023-04-14T18:13:15.328Z,96553.91
2023-04-14T18:15:43.552Z,96549.53
2023-04-14T18:18:11.620Z,96552.34
2023-04-14T18:20:39.527Z,96546.78
2023-04-14T18:23:07.572Z,96550.78
2023-04-14T18:28:06.465Z,96556.59
2023-04-14T18:30:35.854Z,96566.09
2023-04-14T18:33:03.843Z,96558.38
2023-04-14T18:35:33.608Z,96565.75
2023-04-14T18:38:01.799Z,96565.66
2023-04-14T18:40:29.712Z,96564.13
2023-04-14T18:42:57.669Z,96562.75
2023-04-14T18:45:26.726Z,96581.53
2023-04-14T18:47:58.589Z,96579.25
2023-04-14T18:50:27.204Z,96575.91
2023-04-14T18:52:56.262Z,96580.22
2023-04-14T18:55:24.154Z,96586.84
2023-04-14T18:57:52.592Z,96583.94
2023-04-14T19:00:21.277Z,96589.25
2023-04-14T19:02:49.850Z,96590.25
2023-04-14T19:05:19.633Z,96592.78
2023-04-14T19:07:47.910Z,96595.47
2023-04-14T19:10:15.953Z,96600.13
2023-04-14T19:12:43.854Z,96605.34
2023-04-14T19:15:13.346Z,96599.28
2023-04-14T19:17:41.912Z,96603.88
2023-04-14T19:20:10.631Z,96604.03
2023-04-14T19:22:39.954Z,96603.34
2023-04-14T19:25:08.655Z,96603.72
2023-04-14T19:27:38.586Z,96604.34
2023-04-14T19:30:08.011Z,96605.66
2023-04-14T19:32:36.249Z,96610.69
2023-04-14T19:35:06.528Z,96611.63
2023-04-14T19:37:34.960Z,96605.94
2023-04-14T19:40:06.095Z,96611.81
2023-04-14T19:42:34.213Z,96611.63
2023-04-14T19:45:02.151Z,96609.38
2023-04-14T19:47:30.143Z,96602.50
2023-04-14T19:49:59.797Z,96604.50
2023-04-14T19:52:28.375Z,96604.34
2023-04-14T19:54:56.946Z,96608.94
2023-04-14T19:57:26.748Z,96608.84
2023-04-14T19:59:55.210Z,96605.59
2023-04-14T20:05:28.290Z,96607.84
2023-04-14T20:07:56.738Z,96611.13
2023-04-14T20:10:24.950Z,96607.31
2023-04-14T20:12:54.550Z,96605.63
2023-04-14T20:15:22.532Z,96604.41
2023-04-14T20:17:50.625Z,96605.78
2023-04-14T20:20:18.875Z,96596.78
2023-04-14T20:22:47.094Z,96604.56
2023-04-14T20:25:15.063Z,96607.63
2023-04-14T20:27:42.973Z,96607.63
2023-04-14T20:30:12.935Z,96606.63
2023-04-14T20:32:40.998Z,96601.78
2023-04-14T20:35:09.581Z,96599.47
2023-04-14T20:37:37.573Z,96599.28
2023-04-14T20:40:06.367Z,96593.59
2023-04-14T20:42:34.834Z,96591.69
2023-04-14T20:45:03.089Z,96596.66
2023-04-14T20:47:32.562Z,96606.16
2023-04-14T20:50:00.623Z,96605.97
2023-04-14T20:52:28.768Z,96607.38
2023-04-14T20:54:56.757Z,96604.28
2023-04-14T20:57:24.704Z,96613.31
2023-04-14T20:59:52.602Z,96598.22
2023-04-14T21:02:21.014Z,96603.81
2023-04-14T21:04:50.387Z,96604.66
2023-04-14T21:07:18.364Z,96615.34
2023-04-14T21:09:46.290Z,96607.22
2023-04-14T21:12:16.557Z,96613.25
2023-04-14T21:15:41.344Z,96610.06
2023-04-14T21:17:34.558Z,96611.75
2023-04-14T21:20:04.350Z,96617.34
2023-04-14T21:22:32.480Z,96622.69
2023-04-14T21:25:00.607Z,96616.09
2023-04-14T21:27:29.447Z,96610.75
2023-04-14T21:29:57.424Z,96609.06
2023-04-14T21:32:25.551Z,96616.38
2023-04-14T21:34:53.867Z,96618.06
2023-04-14T21:37:23.255Z,96616.38
2023-04-14T21:39:51.266Z,96614.56
2023-04-14T21:42:20.073Z,96612.88
2023-04-14T21:44:49.225Z,96614.44
2023-04-14T21:47:17.641Z,96613.72
2023-04-14T21:49:45.769Z,96621.88
2023-04-14T21:52:13.981Z,96620.53
2023-04-14T21:54:44.381Z,96620.09
2023-04-14T21:57:12.696Z,96620.09
2023-04-14T21:59:40.636Z,96619.53
2023-04-14T22:02:09.358Z,96610.81
2023-04-14T22:04:38.169Z,96615.59
2023-04-14T22:07:06.487Z,96616.44
2023-04-14T22:09:34.562Z,96618.81
2023-04-14T22:12:04.965Z,96607.72
2023-04-14T22:14:32.992Z,96612.38
2023-04-14T22:17:04.000Z,96615.47
2023-04-14T22:19:33.003Z,96615.88
2023-04-14T22:22:01.152Z,96617.16
2023-04-14T22:24:29.420Z,96620.94
2023-04-14T22:26:57.429Z,96622.78
2023-04-14T22:29:27.252Z,96619.84
2023-04-14T22:31:55.151Z,96621.53
2023-04-14T22:34:23.207Z,96617.88
2023-04-14T22:36:51.211Z,96618.72
2023-04-14T22:39:19.526Z,96624.91
2023-04-14T22:41:49.693Z,96624.91
2023-04-14T22:44:17.994Z,96626.03
2023-04-14T22:46:47.932Z,96628.84
2023-04-14T22:49:15.945Z,96629.97
2023-04-14T22:51:43.845Z,96631.81
2023-04-14T22:54:12.384Z,96627.59
2023-04-14T22:56:41.040Z,96632.34
2023-04-14T22:59:08.982Z,96624.78
2023-04-14T23:01:37.483Z,96631.09
2023-04-14T23:04:07.033Z,96630.84
2023-04-14T23:06:35.004Z,96632.22
2023-04-14T23:09:04.738Z,96636.56
2023-04-14T23:11:33.718Z,96624.91
2023-04-14T23:14:02.846Z,96631.25
2023-04-14T23:16:31.097Z,96625.06
2023-04-14T23:18:59.181Z,96629.16
2023-04-14T23:21:29.644Z,96629.28
2023-04-14T23:23:57.976Z,96630.53
2023-04-14T23:26:26.055Z,96631.38
2023-04-14T23:28:54.142Z,96630.00
2023-04-14T23:31:22.181Z,96641.22
2023-04-14T23:33:52.864Z,96637.00
2023-04-14T23:36:21.035Z,96636.00
2023-04-14T23:38:50.438Z,96637.56
2023-04-14T23:41:19.488Z,96637.28
2023-04-14T23:43:49.164Z,96639.69
2023-04-14T23:46:19.770Z,96635.31
2023-04-14T23:48:47.821Z,96629.97
2023-04-14T23:51:21.677Z,96635.31
2023-04-14T23:53:51.672Z,96630.25
2023-04-14T23:56:20.022Z,96630.66
2023-04-14T23:58:48.590Z,96633.50
